sensor_id;sensor_type;location;lat;lon;timestamp;temperature;humidity
12413;DHT22;13877;18.896;-99.222;2023-05-15T00:00:03;28.70;28.90
12413;DHT22;13877;18.896;-99.222;2023-05-15T00:02:38;28.60;29.30
12413;DHT22;13877;18.896;-99.222;2023-05-15T00:05:06;28.50;29.80
12413;DHT22;13877;18.896;-99.222;2023-05-15T00:07:34;28.50;29.60
12413;DHT22;13877;18.896;-99.222;2023-05-15T00:10:02;28.40;28.90
12413;DHT22;13877;18.896;-99.222;2023-05-15T00:12:29;28.40;30.00
12413;DHT22;13877;18.896;-99.222;2023-05-15T00:14:57;28.20;29.60
12413;DHT22;13877;18.896;-99.222;2023-05-15T00:17:24;28.00;29.30
12413;DHT22;13877;18.896;-99.222;2023-05-15T00:19:51;28.00;28.70
12413;DHT22;13877;18.896;-99.222;2023-05-15T00:22:23;28.00;28.40
12413;DHT22;13877;18.896;-99.222;2023-05-15T00:24:50;27.80;27.90
12413;DHT22;13877;18.896;-99.222;2023-05-15T00:27:17;27.80;27.90
12413;DHT22;13877;18.896;-99.222;2023-05-15T00:29:44;27.80;28.00
12413;DHT22;13877;18.896;-99.222;2023-05-15T00:32:12;27.80;27.60
12413;DHT22;13877;18.896;-99.222;2023-05-15T00:34:38;27.70;27.60
12413;DHT22;13877;18.896;-99.222;2023-05-15T00:37:06;27.50;27.60
12413;DHT22;13877;18.896;-99.222;2023-05-15T00:39:35;27.30;28.00
12413;DHT22;13877;18.896;-99.222;2023-05-15T00:42:06;27.10;28.50
12413;DHT22;13877;18.896;-99.222;2023-05-15T00:44:35;26.80;28.80
12413;DHT22;13877;18.896;-99.222;2023-05-15T00:47:03;26.40;29.60
12413;DHT22;13877;18.896;-99.222;2023-05-15T00:49:31;26.20;30.40
12413;DHT22;13877;18.896;-99.222;2023-05-15T00:52:01;26.00;31.20
12413;DHT22;13877;18.896;-99.222;2023-05-15T00:54:28;25.80;31.50
12413;DHT22;13877;18.896;-99.222;2023-05-15T00:56:56;25.70;32.20
12413;DHT22;13877;18.896;-99.222;2023-05-15T00:59:28;25.10;34.10
12413;DHT22;13877;18.896;-99.222;2023-05-15T01:01:56;24.80;35.20
12413;DHT22;13877;18.896;-99.222;2023-05-15T01:04:23;24.60;36.00
12413;DHT22;13877;18.896;-99.222;2023-05-15T01:06:51;24.40;36.40
12413;DHT22;13877;18.896;-99.222;2023-05-15T01:09:23;24.40;36.70
12413;DHT22;13877;18.896;-99.222;2023-05-15T01:11:53;24.40;36.50
12413;DHT22;13877;18.896;-99.222;2023-05-15T01:14:23;24.50;36.80
12413;DHT22;13877;18.896;-99.222;2023-05-15T01:16:49;24.50;36.90
12413;DHT22;13877;18.896;-99.222;2023-05-15T01:19:17;24.60;37.20
12413;DHT22;13877;18.896;-99.222;2023-05-15T01:22:18;24.60;37.50
12413;DHT22;13877;18.896;-99.222;2023-05-15T01:27:55;24.50;37.90
12413;DHT22;13877;18.896;-99.222;2023-05-15T01:30:28;24.50;38.40
12413;DHT22;13877;18.896;-99.222;2023-05-15T01:33:14;24.40;40.30
12413;DHT22;13877;18.896;-99.222;2023-05-15T01:38:59;21.60;53.50
12413;DHT22;13877;18.896;-99.222;2023-05-15T01:41:44;20.80;58.20
12413;DHT22;13877;18.896;-99.222;2023-05-15T01:44:25;20.00;62.70
12413;DHT22;13877;18.896;-99.222;2023-05-15T01:46:58;19.60;69.80
12413;DHT22;13877;18.896;-99.222;2023-05-15T01:49:27;19.30;76.00
12413;DHT22;13877;18.896;-99.222;2023-05-15T01:52:04;19.10;79.90
12413;DHT22;13877;18.896;-99.222;2023-05-15T01:54:33;19.60;84.70
12413;DHT22;13877;18.896;-99.222;2023-05-15T01:57:00;19.60;97.80
12413;DHT22;13877;18.896;-99.222;2023-05-15T01:59:29;19.60;99.50
12413;DHT22;13877;18.896;-99.222;2023-05-15T02:01:56;19.50;99.60
12413;DHT22;13877;18.896;-99.222;2023-05-15T02:04:25;19.80;92.50
12413;DHT22;13877;18.896;-99.222;2023-05-15T02:06:52;20.50;83.80
12413;DHT22;13877;18.896;-99.222;2023-05-15T02:09:21;20.70;90.20
12413;DHT22;13877;18.896;-99.222;2023-05-15T02:11:50;20.80;91.80
12413;DHT22;13877;18.896;-99.222;2023-05-15T02:14:18;21.30;69.40
12413;DHT22;13877;18.896;-99.222;2023-05-15T02:16:46;22.00;85.20
12413;DHT22;13877;18.896;-99.222;2023-05-15T02:19:13;21.80;97.30
12413;DHT22;13877;18.896;-99.222;2023-05-15T02:21:40;21.70;96.50
12413;DHT22;13877;18.896;-99.222;2023-05-15T02:24:07;21.70;95.00
12413;DHT22;13877;18.896;-99.222;2023-05-15T02:32:42;22.70;64.20
12413;DHT22;13877;18.896;-99.222;2023-05-15T02:35:34;22.90;65.40
12413;DHT22;13877;18.896;-99.222;2023-05-15T02:38:10;22.80;65.80
12413;DHT22;13877;18.896;-99.222;2023-05-15T02:40:39;22.60;66.30
12413;DHT22;13877;18.896;-99.222;2023-05-15T02:43:07;22.50;65.50
12413;DHT22;13877;18.896;-99.222;2023-05-15T02:45:36;22.30;64.60
12413;DHT22;13877;18.896;-99.222;2023-05-15T02:48:03;21.60;72.30
12413;DHT22;13877;18.896;-99.222;2023-05-15T02:50:31;21.20;76.50
12413;DHT22;13877;18.896;-99.222;2023-05-15T02:53:03;21.10;72.90
12413;DHT22;13877;18.896;-99.222;2023-05-15T02:55:30;21.00;71.60
12413;DHT22;13877;18.896;-99.222;2023-05-15T02:57:58;21.30;69.20
12413;DHT22;13877;18.896;-99.222;2023-05-15T03:00:25;21.30;69.00
12413;DHT22;13877;18.896;-99.222;2023-05-15T03:02:51;21.30;66.50
12413;DHT22;13877;18.896;-99.222;2023-05-15T03:05:19;21.10;71.70
12413;DHT22;13877;18.896;-99.222;2023-05-15T03:07:46;21.10;68.40
12413;DHT22;13877;18.896;-99.222;2023-05-15T03:10:14;21.00;70.70
12413;DHT22;13877;18.896;-99.222;2023-05-15T03:12:41;20.90;71.10
12413;DHT22;13877;18.896;-99.222;2023-05-15T03:15:08;21.10;71.40
12413;DHT22;13877;18.896;-99.222;2023-05-15T03:17:35;21.10;71.80
12413;DHT22;13877;18.896;-99.222;2023-05-15T03:20:02;21.10;71.50
12413;DHT22;13877;18.896;-99.222;2023-05-15T03:22:30;21.00;75.30
12413;DHT22;13877;18.896;-99.222;2023-05-15T03:24:57;20.80;75.70
12413;DHT22;13877;18.896;-99.222;2023-05-15T03:27:24;20.60;73.90
12413;DHT22;13877;18.896;-99.222;2023-05-15T03:29:51;20.50;73.60
12413;DHT22;13877;18.896;-99.222;2023-05-15T03:32:17;20.50;73.70
12413;DHT22;13877;18.896;-99.222;2023-05-15T03:34:44;20.60;73.50
12413;DHT22;13877;18.896;-99.222;2023-05-15T03:37:11;20.70;71.80
12413;DHT22;13877;18.896;-99.222;2023-05-15T03:39:38;20.60;71.80
12413;DHT22;13877;18.896;-99.222;2023-05-15T03:42:05;20.70;70.20
12413;DHT22;13877;18.896;-99.222;2023-05-15T03:44:32;20.60;72.00
12413;DHT22;13877;18.896;-99.222;2023-05-15T03:46:59;20.60;71.40
12413;DHT22;13877;18.896;-99.222;2023-05-15T03:49:26;20.60;71.30
12413;DHT22;13877;18.896;-99.222;2023-05-15T03:51:52;20.60;71.10
12413;DHT22;13877;18.896;-99.222;2023-05-15T03:54:20;20.50;71.60
12413;DHT22;13877;18.896;-99.222;2023-05-15T03:56:47;20.50;70.90
12413;DHT22;13877;18.896;-99.222;2023-05-15T03:59:13;20.50;71.30
12413;DHT22;13877;18.896;-99.222;2023-05-15T04:01:41;20.40;72.00
12413;DHT22;13877;18.896;-99.222;2023-05-15T04:04:08;20.40;72.20
12413;DHT22;13877;18.896;-99.222;2023-05-15T04:06:34;20.30;73.00
12413;DHT22;13877;18.896;-99.222;2023-05-15T04:09:02;20.40;72.20
12413;DHT22;13877;18.896;-99.222;2023-05-15T04:11:29;20.40;72.30
12413;DHT22;13877;18.896;-99.222;2023-05-15T04:13:57;20.40;72.80
12413;DHT22;13877;18.896;-99.222;2023-05-15T04:16:24;20.50;73.20
12413;DHT22;13877;18.896;-99.222;2023-05-15T04:18:50;20.40;73.40
12413;DHT22;13877;18.896;-99.222;2023-05-15T04:21:17;20.40;74.80
12413;DHT22;13877;18.896;-99.222;2023-05-15T04:23:45;20.20;76.40
12413;DHT22;13877;18.896;-99.222;2023-05-15T04:26:11;20.20;78.30
12413;DHT22;13877;18.896;-99.222;2023-05-15T04:28:39;20.20;80.50
12413;DHT22;13877;18.896;-99.222;2023-05-15T04:31:06;20.20;82.80
12413;DHT22;13877;18.896;-99.222;2023-05-15T04:33:33;20.30;85.40
12413;DHT22;13877;18.896;-99.222;2023-05-15T04:36:00;20.40;85.90
12413;DHT22;13877;18.896;-99.222;2023-05-15T04:38:27;20.40;86.10
12413;DHT22;13877;18.896;-99.222;2023-05-15T04:40:54;20.40;87.20
12413;DHT22;13877;18.896;-99.222;2023-05-15T04:43:21;20.50;87.80
12413;DHT22;13877;18.896;-99.222;2023-05-15T04:45:47;20.50;88.70
12413;DHT22;13877;18.896;-99.222;2023-05-15T04:48:14;20.50;88.60
12413;DHT22;13877;18.896;-99.222;2023-05-15T04:50:43;20.40;87.00
12413;DHT22;13877;18.896;-99.222;2023-05-15T04:53:10;20.40;86.40
12413;DHT22;13877;18.896;-99.222;2023-05-15T04:55:37;20.40;87.00
12413;DHT22;13877;18.896;-99.222;2023-05-15T04:58:04;20.30;87.50
12413;DHT22;13877;18.896;-99.222;2023-05-15T05:00:33;20.30;85.60
12413;DHT22;13877;18.896;-99.222;2023-05-15T05:03:00;20.30;85.30
12413;DHT22;13877;18.896;-99.222;2023-05-15T05:05:27;20.20;86.10
12413;DHT22;13877;18.896;-99.222;2023-05-15T05:07:54;20.20;86.80
12413;DHT22;13877;18.896;-99.222;2023-05-15T05:10:22;20.10;86.30
12413;DHT22;13877;18.896;-99.222;2023-05-15T05:12:49;20.10;86.90
12413;DHT22;13877;18.896;-99.222;2023-05-15T05:15:16;20.10;86.10
12413;DHT22;13877;18.896;-99.222;2023-05-15T05:17:43;20.10;87.40
12413;DHT22;13877;18.896;-99.222;2023-05-15T05:20:10;20.10;86.50
12413;DHT22;13877;18.896;-99.222;2023-05-15T05:22:38;20.10;86.30
12413;DHT22;13877;18.896;-99.222;2023-05-15T05:25:06;20.10;85.30
12413;DHT22;13877;18.896;-99.222;2023-05-15T05:27:34;20.10;83.90
12413;DHT22;13877;18.896;-99.222;2023-05-15T05:30:02;20.10;85.50
12413;DHT22;13877;18.896;-99.222;2023-05-15T05:32:29;20.00;84.70
12413;DHT22;13877;18.896;-99.222;2023-05-15T05:34:55;20.00;87.40
12413;DHT22;13877;18.896;-99.222;2023-05-15T05:37:25;19.80;89.60
12413;DHT22;13877;18.896;-99.222;2023-05-15T05:39:54;19.80;89.30
12413;DHT22;13877;18.896;-99.222;2023-05-15T05:42:21;19.70;89.60
12413;DHT22;13877;18.896;-99.222;2023-05-15T05:44:48;19.70;89.50
12413;DHT22;13877;18.896;-99.222;2023-05-15T05:47:15;19.80;87.30
12413;DHT22;13877;18.896;-99.222;2023-05-15T05:49:42;19.80;89.80
12413;DHT22;13877;18.896;-99.222;2023-05-15T05:52:08;19.60;90.30
12413;DHT22;13877;18.896;-99.222;2023-05-15T05:54:35;19.50;90.20
12413;DHT22;13877;18.896;-99.222;2023-05-15T05:57:02;19.50;90.40
12413;DHT22;13877;18.896;-99.222;2023-05-15T05:59:29;19.50;91.90
12413;DHT22;13877;18.896;-99.222;2023-05-15T06:01:56;19.50;91.10
12413;DHT22;13877;18.896;-99.222;2023-05-15T06:04:23;19.50;91.00
12413;DHT22;13877;18.896;-99.222;2023-05-15T06:06:50;19.50;91.00
12413;DHT22;13877;18.896;-99.222;2023-05-15T06:09:17;19.50;91.50
12413;DHT22;13877;18.896;-99.222;2023-05-15T06:11:44;19.50;91.10
12413;DHT22;13877;18.896;-99.222;2023-05-15T06:14:11;19.60;90.90
12413;DHT22;13877;18.896;-99.222;2023-05-15T06:16:38;19.50;91.20
12413;DHT22;13877;18.896;-99.222;2023-05-15T06:19:05;19.50;91.20
12413;DHT22;13877;18.896;-99.222;2023-05-15T06:21:33;19.50;91.50
12413;DHT22;13877;18.896;-99.222;2023-05-15T06:24:00;19.50;91.10
12413;DHT22;13877;18.896;-99.222;2023-05-15T06:26:27;19.50;91.90
12413;DHT22;13877;18.896;-99.222;2023-05-15T06:28:54;19.50;92.80
12413;DHT22;13877;18.896;-99.222;2023-05-15T06:31:21;19.40;93.70
12413;DHT22;13877;18.896;-99.222;2023-05-15T06:33:47;19.40;94.40
12413;DHT22;13877;18.896;-99.222;2023-05-15T06:36:15;19.30;95.80
12413;DHT22;13877;18.896;-99.222;2023-05-15T06:38:42;19.30;97.00
12413;DHT22;13877;18.896;-99.222;2023-05-15T06:41:09;19.20;98.00
12413;DHT22;13877;18.896;-99.222;2023-05-15T06:43:35;19.10;98.90
12413;DHT22;13877;18.896;-99.222;2023-05-15T06:46:02;19.00;99.60
12413;DHT22;13877;18.896;-99.222;2023-05-15T06:48:29;19.00;99.90
12413;DHT22;13877;18.896;-99.222;2023-05-15T06:50:56;18.90;99.90
12413;DHT22;13877;18.896;-99.222;2023-05-15T06:53:23;18.80;99.90
12413;DHT22;13877;18.896;-99.222;2023-05-15T06:55:50;18.80;99.60
12413;DHT22;13877;18.896;-99.222;2023-05-15T06:58:17;18.80;99.90
12413;DHT22;13877;18.896;-99.222;2023-05-15T07:00:44;18.80;99.00
12413;DHT22;13877;18.896;-99.222;2023-05-15T07:03:10;18.80;98.60
12413;DHT22;13877;18.896;-99.222;2023-05-15T07:05:39;18.70;98.90
12413;DHT22;13877;18.896;-99.222;2023-05-15T07:08:06;18.70;98.80
12413;DHT22;13877;18.896;-99.222;2023-05-15T07:10:33;18.60;98.40
12413;DHT22;13877;18.896;-99.222;2023-05-15T07:13:00;18.60;99.10
12413;DHT22;13877;18.896;-99.222;2023-05-15T07:15:27;18.60;99.10
12413;DHT22;13877;18.896;-99.222;2023-05-15T07:17:54;18.50;99.40
12413;DHT22;13877;18.896;-99.222;2023-05-15T07:20:22;18.50;99.90
12413;DHT22;13877;18.896;-99.222;2023-05-15T07:22:48;18.50;99.90
12413;DHT22;13877;18.896;-99.222;2023-05-15T07:25:16;18.50;99.90
12413;DHT22;13877;18.896;-99.222;2023-05-15T07:27:42;18.40;99.90
12413;DHT22;13877;18.896;-99.222;2023-05-15T07:30:10;18.40;99.70
12413;DHT22;13877;18.896;-99.222;2023-05-15T07:32:37;18.30;99.70
12413;DHT22;13877;18.896;-99.222;2023-05-15T07:35:04;18.30;98.60
12413;DHT22;13877;18.896;-99.222;2023-05-15T07:37:31;18.30;98.60
12413;DHT22;13877;18.896;-99.222;2023-05-15T07:39:58;18.30;98.40
12413;DHT22;13877;18.896;-99.222;2023-05-15T07:42:25;18.30;98.50
12413;DHT22;13877;18.896;-99.222;2023-05-15T07:44:52;18.30;98.90
12413;DHT22;13877;18.896;-99.222;2023-05-15T07:47:18;18.40;99.70
12413;DHT22;13877;18.896;-99.222;2023-05-15T07:49:45;18.40;99.90
12413;DHT22;13877;18.896;-99.222;2023-05-15T07:52:12;18.40;99.30
12413;DHT22;13877;18.896;-99.222;2023-05-15T07:54:39;18.50;98.20
12413;DHT22;13877;18.896;-99.222;2023-05-15T07:57:09;18.70;93.80
12413;DHT22;13877;18.896;-99.222;2023-05-15T07:59:36;18.70;95.10
12413;DHT22;13877;18.896;-99.222;2023-05-15T08:02:03;18.60;96.20
12413;DHT22;13877;18.896;-99.222;2023-05-15T08:04:29;18.50;95.00
12413;DHT22;13877;18.896;-99.222;2023-05-15T08:06:57;18.50;94.60
12413;DHT22;13877;18.896;-99.222;2023-05-15T08:09:24;18.50;94.90
12413;DHT22;13877;18.896;-99.222;2023-05-15T08:11:53;18.40;94.50
12413;DHT22;13877;18.896;-99.222;2023-05-15T08:14:20;18.40;95.50
12413;DHT22;13877;18.896;-99.222;2023-05-15T08:16:49;18.30;94.70
12413;DHT22;13877;18.896;-99.222;2023-05-15T08:19:16;18.30;94.00
12413;DHT22;13877;18.896;-99.222;2023-05-15T08:21:44;18.20;94.20
12413;DHT22;13877;18.896;-99.222;2023-05-15T08:24:11;18.20;93.90
12413;DHT22;13877;18.896;-99.222;2023-05-15T08:26:38;18.20;94.50
12413;DHT22;13877;18.896;-99.222;2023-05-15T08:29:05;18.00;95.60
12413;DHT22;13877;18.896;-99.222;2023-05-15T08:31:32;17.90;96.70
12413;DHT22;13877;18.896;-99.222;2023-05-15T08:33:59;17.80;98.00
12413;DHT22;13877;18.896;-99.222;2023-05-15T08:36:25;17.70;98.90
12413;DHT22;13877;18.896;-99.222;2023-05-15T08:38:52;17.60;99.80
12413;DHT22;13877;18.896;-99.222;2023-05-15T08:41:32;17.50;99.90
12413;DHT22;13877;18.896;-99.222;2023-05-15T08:44:04;17.50;99.90
12413;DHT22;13877;18.896;-99.222;2023-05-15T08:46:32;17.40;99.90
12413;DHT22;13877;18.896;-99.222;2023-05-15T08:49:05;17.30;99.90
12413;DHT22;13877;18.896;-99.222;2023-05-15T08:51:33;17.30;99.90
12413;DHT22;13877;18.896;-99.222;2023-05-15T08:54:00;17.30;99.90
12413;DHT22;13877;18.896;-99.222;2023-05-15T08:56:27;17.30;99.90
12413;DHT22;13877;18.896;-99.222;2023-05-15T08:58:54;17.20;99.90
12413;DHT22;13877;18.896;-99.222;2023-05-15T09:01:22;17.20;99.90
12413;DHT22;13877;18.896;-99.222;2023-05-15T09:03:48;17.20;99.90
12413;DHT22;13877;18.896;-99.222;2023-05-15T09:06:15;17.00;99.90
12413;DHT22;13877;18.896;-99.222;2023-05-15T09:08:42;16.90;99.90
12413;DHT22;13877;18.896;-99.222;2023-05-15T09:11:10;16.70;99.90
12413;DHT22;13877;18.896;-99.222;2023-05-15T09:13:37;16.70;99.90
12413;DHT22;13877;18.896;-99.222;2023-05-15T09:16:05;16.70;99.90
12413;DHT22;13877;18.896;-99.222;2023-05-15T09:18:33;16.70;99.90
12413;DHT22;13877;18.896;-99.222;2023-05-15T09:21:24;16.70;99.90
12413;DHT22;13877;18.896;-99.222;2023-05-15T09:23:56;16.70;99.90
12413;DHT22;13877;18.896;-99.222;2023-05-15T09:26:44;16.80;99.90
12413;DHT22;13877;18.896;-99.222;2023-05-15T09:29:15;16.70;99.90
12413;DHT22;13877;18.896;-99.222;2023-05-15T09:31:45;16.60;99.90
12413;DHT22;13877;18.896;-99.222;2023-05-15T09:34:13;16.70;99.90
12413;DHT22;13877;18.896;-99.222;2023-05-15T09:36:43;16.70;99.90
12413;DHT22;13877;18.896;-99.222;2023-05-15T09:39:10;17.00;99.90
12413;DHT22;13877;18.896;-99.222;2023-05-15T09:41:42;16.90;99.90
12413;DHT22;13877;18.896;-99.222;2023-05-15T09:44:24;17.00;99.90
12413;DHT22;13877;18.896;-99.222;2023-05-15T09:46:51;17.00;99.90
12413;DHT22;13877;18.896;-99.222;2023-05-15T09:49:19;16.80;99.90
12413;DHT22;13877;18.896;-99.222;2023-05-15T09:51:47;16.60;99.90
12413;DHT22;13877;18.896;-99.222;2023-05-15T09:54:19;16.50;99.90
12413;DHT22;13877;18.896;-99.222;2023-05-15T09:56:48;16.50;99.90
12413;DHT22;13877;18.896;-99.222;2023-05-15T09:59:19;16.50;99.90
12413;DHT22;13877;18.896;-99.222;2023-05-15T10:01:50;16.40;99.90
12413;DHT22;13877;18.896;-99.222;2023-05-15T10:04:20;16.50;99.90
12413;DHT22;13877;18.896;-99.222;2023-05-15T10:06:47;16.70;99.90
12413;DHT22;13877;18.896;-99.222;2023-05-15T10:09:15;16.40;99.90
12413;DHT22;13877;18.896;-99.222;2023-05-15T10:11:49;16.30;99.90
12413;DHT22;13877;18.896;-99.222;2023-05-15T10:14:17;16.30;99.90
12413;DHT22;13877;18.896;-99.222;2023-05-15T10:16:45;16.10;99.90
12413;DHT22;13877;18.896;-99.222;2023-05-15T10:19:12;16.00;99.90
12413;DHT22;13877;18.896;-99.222;2023-05-15T10:21:40;15.80;99.90
12413;DHT22;13877;18.896;-99.222;2023-05-15T10:24:08;15.90;99.90
12413;DHT22;13877;18.896;-99.222;2023-05-15T10:26:37;15.90;99.90
12413;DHT22;13877;18.896;-99.222;2023-05-15T10:29:12;15.90;99.90
12413;DHT22;13877;18.896;-99.222;2023-05-15T10:31:40;15.80;99.90
12413;DHT22;13877;18.896;-99.222;2023-05-15T10:34:08;15.90;99.90
12413;DHT22;13877;18.896;-99.222;2023-05-15T10:36:36;16.00;99.90
12413;DHT22;13877;18.896;-99.222;2023-05-15T10:39:06;15.90;99.90
12413;DHT22;13877;18.896;-99.222;2023-05-15T10:41:36;16.00;99.90
12413;DHT22;13877;18.896;-99.222;2023-05-15T10:44:03;16.00;99.90
12413;DHT22;13877;18.896;-99.222;2023-05-15T10:46:34;16.10;99.90
12413;DHT22;13877;18.896;-99.222;2023-05-15T10:49:03;16.10;99.90
12413;DHT22;13877;18.896;-99.222;2023-05-15T10:51:31;16.20;99.90
12413;DHT22;13877;18.896;-99.222;2023-05-15T10:53:59;16.20;99.90
12413;DHT22;13877;18.896;-99.222;2023-05-15T10:56:38;16.30;99.90
12413;DHT22;13877;18.896;-99.222;2023-05-15T10:59:07;16.20;99.90
12413;DHT22;13877;18.896;-99.222;2023-05-15T11:01:35;16.00;99.90
12413;DHT22;13877;18.896;-99.222;2023-05-15T11:04:08;15.90;99.90
12413;DHT22;13877;18.896;-99.222;2023-05-15T11:06:37;16.00;99.90
12413;DHT22;13877;18.896;-99.222;2023-05-15T11:12:00;16.30;99.90
12413;DHT22;13877;18.896;-99.222;2023-05-15T11:14:29;16.50;99.90
12413;DHT22;13877;18.896;-99.222;2023-05-15T11:16:58;16.50;99.90
12413;DHT22;13877;18.896;-99.222;2023-05-15T11:22:00;16.60;99.90
12413;DHT22;13877;18.896;-99.222;2023-05-15T11:24:28;16.50;99.90
12413;DHT22;13877;18.896;-99.222;2023-05-15T11:27:03;16.50;99.90
12413;DHT22;13877;18.896;-99.222;2023-05-15T11:29:30;16.50;99.90
12413;DHT22;13877;18.896;-99.222;2023-05-15T11:31:57;16.50;99.90
12413;DHT22;13877;18.896;-99.222;2023-05-15T11:34:34;16.50;99.90
12413;DHT22;13877;18.896;-99.222;2023-05-15T11:37:16;16.40;99.90
12413;DHT22;13877;18.896;-99.222;2023-05-15T11:39:43;16.30;99.90
12413;DHT22;13877;18.896;-99.222;2023-05-15T11:42:11;16.40;99.90
12413;DHT22;13877;18.896;-99.222;2023-05-15T11:44:39;16.40;99.90
12413;DHT22;13877;18.896;-99.222;2023-05-15T11:47:09;16.30;99.90
12413;DHT22;13877;18.896;-99.222;2023-05-15T11:49:37;16.00;99.90
12413;DHT22;13877;18.896;-99.222;2023-05-15T11:52:04;15.80;99.90
12413;DHT22;13877;18.896;-99.222;2023-05-15T11:54:31;15.70;99.90
12413;DHT22;13877;18.896;-99.222;2023-05-15T11:56:58;16.00;99.90
12413;DHT22;13877;18.896;-99.222;2023-05-15T11:59:26;16.40;99.90
12413;DHT22;13877;18.896;-99.222;2023-05-15T12:01:53;16.30;99.90
12413;DHT22;13877;18.896;-99.222;2023-05-15T12:04:20;16.10;99.90
12413;DHT22;13877;18.896;-99.222;2023-05-15T12:06:47;16.00;99.90
12413;DHT22;13877;18.896;-99.222;2023-05-15T12:09:24;16.00;99.90
12413;DHT22;13877;18.896;-99.222;2023-05-15T12:11:53;16.10;99.90
12413;DHT22;13877;18.896;-99.222;2023-05-15T12:14:28;16.40;99.90
12413;DHT22;13877;18.896;-99.222;2023-05-15T12:16:59;16.50;99.90
12413;DHT22;13877;18.896;-99.222;2023-05-15T12:19:30;16.60;99.90
12413;DHT22;13877;18.896;-99.222;2023-05-15T12:21:58;16.70;99.90
12413;DHT22;13877;18.896;-99.222;2023-05-15T12:24:26;16.80;99.90
12413;DHT22;13877;18.896;-99.222;2023-05-15T12:26:53;17.00;99.90
12413;DHT22;13877;18.896;-99.222;2023-05-15T12:29:20;17.10;99.90
12413;DHT22;13877;18.896;-99.222;2023-05-15T12:31:47;17.50;99.90
12413;DHT22;13877;18.896;-99.222;2023-05-15T12:34:19;17.50;99.90
12413;DHT22;13877;18.896;-99.222;2023-05-15T12:36:46;17.50;99.90
12413;DHT22;13877;18.896;-99.222;2023-05-15T12:39:13;17.60;99.90
12413;DHT22;13877;18.896;-99.222;2023-05-15T12:41:40;17.50;99.90
12413;DHT22;13877;18.896;-99.222;2023-05-15T12:44:17;17.70;99.90
12413;DHT22;13877;18.896;-99.222;2023-05-15T12:46:47;17.80;99.90
12413;DHT22;13877;18.896;-99.222;2023-05-15T12:49:20;17.90;99.40
12413;DHT22;13877;18.896;-99.222;2023-05-15T12:51:48;18.00;99.70
12413;DHT22;13877;18.896;-99.222;2023-05-15T12:54:19;18.00;98.40
12413;DHT22;13877;18.896;-99.222;2023-05-15T12:56:47;18.30;98.10
12413;DHT22;13877;18.896;-99.222;2023-05-15T12:59:14;18.50;98.00
12413;DHT22;13877;18.896;-99.222;2023-05-15T13:01:41;18.70;97.80
12413;DHT22;13877;18.896;-99.222;2023-05-15T13:04:08;18.90;96.60
12413;DHT22;13877;18.896;-99.222;2023-05-15T13:06:40;19.10;95.30
12413;DHT22;13877;18.896;-99.222;2023-05-15T13:09:07;19.30;94.50
12413;DHT22;13877;18.896;-99.222;2023-05-15T13:11:34;19.50;93.70
12413;DHT22;13877;18.896;-99.222;2023-05-15T13:14:08;19.70;92.60
12413;DHT22;13877;18.896;-99.222;2023-05-15T13:16:43;20.00;92.10
12413;DHT22;13877;18.896;-99.222;2023-05-15T13:19:11;20.30;91.30
12413;DHT22;13877;18.896;-99.222;2023-05-15T13:21:39;20.40;90.50
12413;DHT22;13877;18.896;-99.222;2023-05-15T13:24:06;20.60;90.20
12413;DHT22;13877;18.896;-99.222;2023-05-15T13:26:35;20.80;88.70
12413;DHT22;13877;18.896;-99.222;2023-05-15T13:29:02;20.90;88.90
12413;DHT22;13877;18.896;-99.222;2023-05-15T13:31:30;20.90;88.20
12413;DHT22;13877;18.896;-99.222;2023-05-15T13:33:57;21.20;86.80
12413;DHT22;13877;18.896;-99.222;2023-05-15T13:36:24;21.30;85.70
12413;DHT22;13877;18.896;-99.222;2023-05-15T13:38:51;21.20;85.50
12413;DHT22;13877;18.896;-99.222;2023-05-15T13:41:18;21.20;86.00
12413;DHT22;13877;18.896;-99.222;2023-05-15T13:43:45;21.40;85.70
12413;DHT22;13877;18.896;-99.222;2023-05-15T13:46:13;21.60;83.60
12413;DHT22;13877;18.896;-99.222;2023-05-15T13:48:40;21.70;84.40
12413;DHT22;13877;18.896;-99.222;2023-05-15T13:51:07;21.70;82.10
12413;DHT22;13877;18.896;-99.222;2023-05-15T13:53:33;21.70;82.00
12413;DHT22;13877;18.896;-99.222;2023-05-15T13:56:01;21.80;81.50
12413;DHT22;13877;18.896;-99.222;2023-05-15T13:58:28;21.80;80.50
12413;DHT22;13877;18.896;-99.222;2023-05-15T14:00:55;21.90;76.00
12413;DHT22;13877;18.896;-99.222;2023-05-15T14:03:22;22.00;75.40
12413;DHT22;13877;18.896;-99.222;2023-05-15T14:05:49;22.30;78.00
12413;DHT22;13877;18.896;-99.222;2023-05-15T14:08:16;22.10;76.40
12413;DHT22;13877;18.896;-99.222;2023-05-15T14:10:43;22.20;77.70
12413;DHT22;13877;18.896;-99.222;2023-05-15T14:13:10;22.40;78.40
12413;DHT22;13877;18.896;-99.222;2023-05-15T14:15:37;22.50;78.50
12413;DHT22;13877;18.896;-99.222;2023-05-15T14:18:04;22.40;77.20
12413;DHT22;13877;18.896;-99.222;2023-05-15T14:20:31;22.60;75.70
12413;DHT22;13877;18.896;-99.222;2023-05-15T14:22:57;22.60;77.70
12413;DHT22;13877;18.896;-99.222;2023-05-15T14:25:25;22.90;74.30
12413;DHT22;13877;18.896;-99.222;2023-05-15T14:27:51;23.00;74.00
12413;DHT22;13877;18.896;-99.222;2023-05-15T14:30:20;23.20;73.60
12413;DHT22;13877;18.896;-99.222;2023-05-15T14:32:47;23.00;73.80
12413;DHT22;13877;18.896;-99.222;2023-05-15T14:35:14;23.00;75.60
12413;DHT22;13877;18.896;-99.222;2023-05-15T14:37:40;23.10;75.50
12413;DHT22;13877;18.896;-99.222;2023-05-15T14:40:09;23.30;75.30
12413;DHT22;13877;18.896;-99.222;2023-05-15T14:42:36;23.20;75.90
12413;DHT22;13877;18.896;-99.222;2023-05-15T14:45:03;22.80;76.50
12413;DHT22;13877;18.896;-99.222;2023-05-15T14:47:30;23.20;76.80
12413;DHT22;13877;18.896;-99.222;2023-05-15T14:49:57;23.30;75.20
12413;DHT22;13877;18.896;-99.222;2023-05-15T14:52:24;23.30;74.50
12413;DHT22;13877;18.896;-99.222;2023-05-15T14:54:51;23.30;72.80
12413;DHT22;13877;18.896;-99.222;2023-05-15T14:57:18;23.60;72.90
12413;DHT22;13877;18.896;-99.222;2023-05-15T14:59:46;23.60;74.90
12413;DHT22;13877;18.896;-99.222;2023-05-15T15:02:13;23.90;72.90
12413;DHT22;13877;18.896;-99.222;2023-05-15T15:04:39;23.70;74.50
12413;DHT22;13877;18.896;-99.222;2023-05-15T15:07:09;24.10;71.10
12413;DHT22;13877;18.896;-99.222;2023-05-15T15:09:37;24.20;72.20
12413;DHT22;13877;18.896;-99.222;2023-05-15T15:12:04;24.10;72.10
12413;DHT22;13877;18.896;-99.222;2023-05-15T15:14:31;24.30;71.60
12413;DHT22;13877;18.896;-99.222;2023-05-15T15:16:58;24.40;71.40
12413;DHT22;13877;18.896;-99.222;2023-05-15T15:19:25;24.30;70.80
12413;DHT22;13877;18.896;-99.222;2023-05-15T15:21:52;24.20;70.50
12413;DHT22;13877;18.896;-99.222;2023-05-15T15:24:19;24.30;68.90
12413;DHT22;13877;18.896;-99.222;2023-05-15T15:26:46;24.10;71.70